Wilkes Barre Scranton International Airport
KAVP : now visible

Airfield :











YOU CAN JOIN US ON...

 
LOGIN :

Register | Disclaimer

   EN    FR    IT 

 









Legend :    VFR   Marginal VFR   IFR   Intensive IFR   Very Intensive IFR
Visi :
Ceiling :
>= 8 km
>= 3000ft
5 to 8 km
1000 to 3000 ft
1500m to 5 km
500 to 1000 ft
800 to 1500m
200 to 500 ft
< 800m
< 200 ft
Symbols :   Thunderstorms  Fog  Heavy snow  Heavy precipitations  Wind > 20 kt






- Airport Elevation : 962 ft
- IATA code : AVP


KAVP - Wilkes Barre Scranton International

CURRENT METAR :
  • 080954Z 25007KT 9SM FEW003 OVC009 12/11 A2950 RMK AO2 SLP984 T01170106

EXPIRED METARs :
  • 080929Z 21003KT 4SM BR SCT002 OVC013 11/10 A2948 RMK AO2 T01110100
  • 080919Z 21003KT 3SM R04/6000VP6000FT BR BKN002 OVC014 11/10 A2948 RMK AO2 T01110100
  • 080911Z 21004KT 2SM R04/4500VP6000FT BR BKN002 OVC014 11/10 A2948 RMK AO2 T01110100
  • 080854Z 31003KT 1/2SM R04/1400V2600FT FG VV002 11/10 A2949 RMK AO2 RAE25 SLP981 P0002 60022 T01110100 58011
  • 080845Z 13003KT 1/4SM R04/1400V2200FT FG VV002 11/10 A2946 RMK AO2 RAE25 P0002 T01060100
  • 080831Z 33010KT 3/4SM R04/1800VP6000FT BR SCT002 BKN075 OVC110 11/09 A2949 RMK AO2 RAE25 P0002 T01110094
  • 080824Z 33005KT 2SM R04/5000VP6000FT -RA BR FEW008 BKN070 OVC110 12/09 A2947 RMK AO2 P0002 T01170094
  • 080754Z 23006KT 5SM RA BR OVC060 13/11 A2950 RMK AO2 SLP984 P0008 T01280106

TAF KAVP
Valid from the 08 at 10:00 until the 09 at 06:00 UTC


081009Z 0810/0906 27006KT P6SM SCT002 OVC009
TEMPO 0811/0815 BKN025
FM081500 31012KT P6SM BKN035
FM090100 VRB03KT P6SM SCT200



MET'MAP, your aeronautical weather chart ! - Copyright ORBIFLY December 2007 - Disclaimer

ORBIFLY MET'MAP TEAM :

Programming & Development : Alexandra Zaïnal
Concept & original design : Baudouin d'Aumeries
Assistance for programming : Marc-Olivier Méhu
Technical & hardware support : Manuel Goepfert

Contact : metmap@orbifly.com




SOURCES & CREDITS :

   NOAA       Earth
Advisory